Time;durP1;ratioP1;P1;durP2;ratioP2;P2;SDS_P1;SDS_P2;PMS_P1;PMS_P2;Temp;Humidity;BMP_temperature;BMP_pressure;BME280_temperature;BME280_humidity;BME280_pressure;Samples;Min_cycle;Max_cycle;Signal;HPM_P1;HPM_P2
2023/10/26 00:00:27;;;;;;;16.92;12.35;;;9.50;99.90;;;;;;5073312;28;20063;-81
2023/10/26 00:02:53;;;;;;;19.10;12.82;;;9.50;99.90;;;;;;5073987;28;20036;-81
2023/10/26 00:05:18;;;;;;;19.98;13.00;;;9.50;99.90;;;;;;5075275;28;20071;-82
2023/10/26 00:07:44;;;;;;;15.75;12.20;;;9.50;99.90;;;;;;5057124;28;20048;-82
2023/10/26 00:10:10;;;;;;;17.83;12.23;;;9.50;99.90;;;;;;5052792;28;20091;-82
2023/10/26 00:12:35;;;;;;;18.55;12.27;;;9.50;99.90;;;;;;5053896;28;20091;-82
2023/10/26 00:15:01;;;;;;;18.80;12.38;;;9.40;99.90;;;;;;5052991;28;20041;-83
2023/10/26 00:17:27;;;;;;;19.08;12.75;;;9.40;99.90;;;;;;5052576;28;20423;-83
2023/10/26 00:19:53;;;;;;;16.42;11.90;;;9.40;99.90;;;;;;5052713;28;20094;-82
2023/10/26 00:22:19;;;;;;;19.65;12.55;;;9.40;99.90;;;;;;5053505;28;20040;-82
2023/10/26 00:24:45;;;;;;;16.80;11.85;;;9.40;99.90;;;;;;5051615;28;20044;-82
2023/10/26 00:27:10;;;;;;;22.67;12.90;;;9.40;99.90;;;;;;5052357;28;20045;-83
2023/10/26 00:29:36;;;;;;;17.90;12.15;;;9.40;99.90;;;;;;5051595;28;20090;-83
2023/10/26 00:32:04;;;;;;;15.00;11.77;;;9.30;99.90;;;;;;5035133;28;20045;-82
2023/10/26 00:34:29;;;;;;;17.73;11.75;;;9.70;99.90;;;;;;5036028;28;20044;-82
2023/10/26 00:36:55;;;;;;;15.77;11.52;;;9.30;99.90;;;;;;5052614;28;20466;-82
2023/10/26 00:39:20;;;;;;;16.60;11.30;;;9.30;99.90;;;;;;5052172;28;20055;-82
2023/10/26 00:41:50;;;;;;;15.45;11.38;;;9.30;99.90;;;;;;5052899;28;20047;-82
2023/10/26 00:44:16;;;;;;;18.52;12.55;;;9.30;99.90;;;;;;5052331;28;20132;-82
2023/10/26 00:46:41;;;;;;;18.35;11.93;;;9.30;99.90;;;;;;5036292;28;20177;-82
2023/10/26 00:49:10;;;;;;;18.15;11.85;;;9.30;99.90;;;;;;5051876;28;20128;-83
2023/10/26 00:51:35;;;;;;;16.27;11.30;;;9.30;99.90;;;;;;5051618;28;20511;-81
2023/10/26 00:54:02;;;;;;;15.70;11.25;;;9.20;99.90;;;;;;5052483;28;20097;-82
2023/10/26 00:56:28;;;;;;;15.27;11.65;;;9.20;99.90;;;;;;5051605;28;20218;-82
2023/10/26 00:58:56;;;;;;;18.17;12.68;;;9.20;99.90;;;;;;5051404;28;20045;-83
2023/10/26 01:01:23;;;;;;;18.75;12.52;;;9.30;99.90;;;;;;5051968;28;20079;-82
2023/10/26 01:03:51;;;;;;;19.05;12.73;;;9.20;99.90;;;;;;5052141;28;20040;-81
2023/10/26 01:06:17;;;;;;;20.98;13.77;;;9.30;99.90;;;;;;5052805;28;20470;-80
2023/10/26 01:08:43;;;;;;;18.85;14.10;;;9.20;99.90;;;;;;5054946;28;20085;-80
2023/10/26 01:11:08;;;;;;;18.48;13.20;;;9.20;99.90;;;;;;5055156;28;20064;-81
2023/10/26 01:13:34;;;;;;;19.67;14.02;;;9.20;99.90;;;;;;5055026;28;20029;-80
2023/10/26 01:16:02;;;;;;;21.75;14.52;;;9.10;99.90;;;;;;5055436;28;20543;-81
2023/10/26 01:18:27;;;;;;;22.20;14.68;;;9.10;99.90;;;;;;5053079;28;20041;-82
2023/10/26 01:20:54;;;;;;;28.50;14.25;;;9.10;99.90;;;;;;5036312;28;20052;-82
2023/10/26 01:23:19;;;;;;;22.17;14.80;;;9.10;99.90;;;;;;5035416;28;20041;-82
2023/10/26 01:25:50;;;;;;;20.95;14.68;;;9.00;99.90;;;;;;5051069;28;20385;-82
2023/10/26 01:28:16;;;;;;;21.08;14.70;;;9.10;99.90;;;;;;5052814;28;20083;-82
2023/10/26 01:30:42;;;;;;;22.88;14.75;;;9.10;99.90;;;;;;5055304;28;20159;-82
2023/10/26 01:33:07;;;;;;;30.90;16.50;;;9.00;99.90;;;;;;5061329;28;20048;-82
2023/10/26 01:35:42;;;;;;;24.15;16.65;;;9.00;99.90;;;;;;5060997;28;20380;-82
2023/10/26 01:38:08;;;;;;;25.42;16.73;;;9.00;99.90;;;;;;5071974;28;20112;-82
2023/10/26 01:40:33;;;;;;;25.73;16.75;;;9.00;99.90;;;;;;5057508;28;20079;-82
2023/10/26 01:42:59;;;;;;;29.90;16.95;;;9.00;99.90;;;;;;5038727;28;20037;-82
2023/10/26 01:45:24;;;;;;;28.20;18.45;;;9.10;99.90;;;;;;5067876;28;20040;-82
2023/10/26 01:47:50;;;;;;;26.38;18.55;;;9.10;99.90;;;;;;5060769;28;20040;-82
2023/10/26 01:50:16;;;;;;;33.58;20.80;;;9.10;99.90;;;;;;5073822;28;20062;-82
2023/10/26 01:52:44;;;;;;;28.45;19.77;;;9.10;99.90;;;;;;5077580;28;20496;-81
2023/10/26 01:55:09;;;;;;;28.98;19.05;;;9.10;99.90;;;;;;5075435;28;20036;-82
2023/10/26 01:57:35;;;;;;;32.78;19.88;;;9.20;99.90;;;;;;5068850;28;20033;-82
2023/10/26 02:00:01;;;;;;;30.52;20.13;;;9.20;99.90;;;;;;5054816;28;20397;-82
2023/10/26 02:02:26;;;;;;;29.48;20.80;;;9.20;99.90;;;;;;5055671;28;20041;-82
2023/10/26 02:04:52;;;;;;;32.65;21.80;;;9.20;99.90;;;;;;5054185;28;20053;-82
2023/10/26 02:07:17;;;;;;;35.55;21.40;;;9.20;99.90;;;;;;5073687;28;20036;-83
2023/10/26 02:09:43;;;;;;;33.97;22.65;;;9.20;99.90;;;;;;5072461;28;20041;-82
2023/10/26 02:12:08;;;;;;;33.50;21.83;;;9.20;99.90;;;;;;5069955;28;20455;-83
2023/10/26 02:14:34;;;;;;;37.17;22.63;;;9.20;99.90;;;;;;5056559;28;20032;-82
2023/10/26 02:16:59;;;;;;;36.53;22.30;;;9.20;99.90;;;;;;5075822;28;20036;-83
2023/10/26 02:19:25;;;;;;;45.13;24.30;;;9.20;99.90;;;;;;5055682;28;20033;-83
2023/10/26 02:21:50;;;;;;;33.65;22.77;;;9.20;99.90;;;;;;5077321;28;20052;-82
2023/10/26 02:24:16;;;;;;;41.63;21.35;;;9.30;99.90;;;;;;5079241;28;20049;-82
2023/10/26 02:26:41;;;;;;;52.72;23.55;;;9.30;99.90;;;;;;5059254;28;20100;-82
2023/10/26 02:29:07;;;;;;;35.97;21.85;;;9.30;99.90;;;;;;5040876;28;20041;-82
2023/10/26 02:31:32;;;;;;;41.00;22.63;;;9.20;99.90;;;;;;5075716;28;20041;-82
2023/10/26 02:33:58;;;;;;;33.78;21.20;;;9.20;99.90;;;;;;5077388;28;20127;-82
2023/10/26 02:36:24;;;;;;;31.85;21.67;;;9.20;99.90;;;;;;5073701;28;20028;-82
2023/10/26 02:38:49;;;;;;;45.30;23.10;;;9.20;99.90;;;;;;5057025;28;20037;-82
2023/10/26 02:41:15;;;;;;;34.83;22.27;;;9.20;99.90;;;;;;5056494;28;20036;-82
2023/10/26 02:43:40;;;;;;;37.95;22.88;;;9.20;99.90;;;;;;5057139;28;20064;-82
2023/10/26 02:46:06;;;;;;;31.55;21.52;;;9.20;99.90;;;;;;5057480;28;20183;-82
2023/10/26 02:48:32;;;;;;;36.75;22.77;;;9.20;99.90;;;;;;5057750;28;20176;-82
2023/10/26 02:50:58;;;;;;;40.70;23.05;;;9.20;99.90;;;;;;5056574;28;20041;-82
2023/10/26 02:53:23;;;;;;;36.75;22.35;;;9.20;99.90;;;;;;5056997;28;20180;-83
2023/10/26 02:55:49;;;;;;;36.25;22.52;;;9.20;99.90;;;;;;5055978;28;20040;-82
2023/10/26 02:58:14;;;;;;;45.53;23.63;;;9.20;99.90;;;;;;5057488;28;20057;-82
2023/10/26 03:00:40;;;;;;;32.08;21.02;;;9.20;99.90;;;;;;5057379;28;20447;-82
2023/10/26 03:03:05;;;;;;;35.83;21.85;;;9.20;99.90;;;;;;5055164;28;20055;-82
2023/10/26 03:05:33;;;;;;;43.50;23.23;;;9.20;99.90;;;;;;5056032;28;20056;-83
2023/10/26 03:07:59;;;;;;;34.53;21.88;;;9.20;99.90;;;;;;5055369;28;20049;-83
2023/10/26 03:10:25;;;;;;;33.35;21.38;;;9.20;99.90;;;;;;5056453;28;20052;-82
2023/10/26 03:12:52;;;;;;;35.83;22.23;;;9.20;99.90;;;;;;5040142;28;20052;-82
2023/10/26 03:15:18;;;;;;;36.10;23.50;;;9.20;99.90;;;;;;5054991;28;20132;-83
2023/10/26 03:17:44;;;;;;;35.47;22.48;;;9.20;99.90;;;;;;5054671;28;20040;-83
2023/10/26 03:20:10;;;;;;;38.03;23.27;;;9.20;99.90;;;;;;5059931;28;20047;-82
2023/10/26 03:22:35;;;;;;;40.60;24.33;;;9.10;99.90;;;;;;5076643;28;20123;-82
2023/10/26 03:25:01;;;;;;;44.47;25.55;;;9.20;99.90;;;;;;5077698;28;20082;-83
2023/10/26 03:27:27;;;;;;;47.15;25.20;;;9.10;99.90;;;;;;5075487;28;20044;-82
2023/10/26 03:29:54;;;;;;;39.58;24.58;;;9.10;99.90;;;;;;5058624;28;20097;-82
2023/10/26 03:32:19;;;;;;;40.33;24.48;;;9.20;99.90;;;;;;5071186;28;20044;-82
2023/10/26 03:34:45;;;;;;;44.88;25.60;;;9.10;99.90;;;;;;5075777;28;20118;-82
2023/10/26 03:37:10;;;;;;;36.72;24.20;;;9.10;99.90;;;;;;5059987;28;20449;-82
2023/10/26 03:39:36;;;;;;;43.10;24.95;;;9.10;99.90;;;;;;5076316;28;20041;-82
2023/10/26 03:42:02;;;;;;;41.58;25.13;;;9.20;99.90;;;;;;5075458;28;20095;-82
2023/10/26 03:44:28;;;;;;;39.15;24.67;;;9.20;99.90;;;;;;5067533;28;20044;-82
2023/10/26 03:46:54;;;;;;;36.67;23.52;;;9.20;99.90;;;;;;5056000;28;20045;-82
2023/10/26 03:49:20;;;;;;;42.22;25.73;;;9.20;99.90;;;;;;5055675;28;20048;-82
2023/10/26 03:51:46;;;;;;;39.95;25.80;;;9.20;99.90;;;;;;5055712;28;20416;-82
2023/10/26 03:54:12;;;;;;;38.20;24.67;;;9.20;99.90;;;;;;5055897;28;20063;-82
2023/10/26 03:56:38;;;;;;;39.13;25.50;;;9.20;99.90;;;;;;5055569;28;20504;-82
2023/10/26 03:59:03;;;;;;;69.38;28.08;;;9.20;99.90;;;;;;5055496;28;20037;-83
2023/10/26 04:01:29;;;;;;;34.85;23.52;;;9.20;99.90;;;;;;5074681;28;20088;-82
2023/10/26 04:03:54;;;;;;;37.33;24.98;;;9.20;99.90;;;;;;5065914;28;20037;-83
2023/10/26 04:06:20;;;;;;;40.97;26.52;;;9.20;99.90;;;;;;5054156;28;20044;-83
2023/10/26 04:08:45;;;;;;;39.33;26.40;;;9.20;99.90;;;;;;5062752;28;20036;-83
2023/10/26 04:11:18;;;;;;;43.17;26.98;;;9.10;99.90;;;;;;5074791;28;20040;-83
2023/10/26 04:13:44;;;;;;;38.40;25.38;;;9.10;99.90;;;;;;5058690;28;20029;-83
2023/10/26 04:16:11;;;;;;;38.25;25.73;;;9.10;99.90;;;;;;5075152;28;20064;-83
2023/10/26 04:18:37;;;;;;;40.30;25.77;;;9.10;99.90;;;;;;5073915;28;20051;-82
2023/10/26 04:21:04;;;;;;;42.05;25.95;;;9.10;99.90;;;;;;5058471;28;20037;-82
2023/10/26 04:23:29;;;;;;;46.38;26.50;;;9.10;99.90;;;;;;5065106;28;20440;-83
2023/10/26 04:25:55;;;;;;;37.08;25.23;;;9.10;99.90;;;;;;5073795;28;20043;-83
2023/10/26 04:28:21;;;;;;;36.33;24.60;;;9.10;99.90;;;;;;5056139;28;20047;-83
2023/10/26 04:31:12;;;;;;;40.55;25.08;;;9.00;99.90;;;;;;5106061;22;20619;-83
2023/10/26 04:33:48;;;;;;;42.38;25.25;;;8.90;99.90;;;;;;5018808;28;20080;-82
2023/10/26 04:36:14;;;;;;;43.63;25.70;;;8.70;99.90;;;;;;5032677;28;20060;-83
2023/10/26 04:38:39;;;;;;;44.83;24.90;;;9.20;99.90;;;;;;5014743;28;20041;-83
2023/10/26 04:41:05;;;;;;;41.78;25.20;;;9.00;99.90;;;;;;5031822;28;20389;-83
2023/10/26 04:43:31;;;;;;;37.45;24.33;;;9.00;99.90;;;;;;5034103;28;20413;-83
2023/10/26 04:45:56;;;;;;;38.53;24.40;;;9.00;99.90;;;;;;5017658;28;20044;-83
2023/10/26 04:48:22;;;;;;;38.40;23.73;;;9.00;99.90;;;;;;5032962;28;20524;-82
2023/10/26 04:50:48;;;;;;;34.13;22.15;;;8.90;99.90;;;;;;5033268;28;20030;-82
2023/10/26 04:53:13;;;;;;;34.03;22.23;;;8.90;99.90;;;;;;5017496;28;20088;-82
2023/10/26 04:55:39;;;;;;;35.17;22.45;;;8.90;99.90;;;;;;5032857;28;20476;-82
2023/10/26 04:58:04;;;;;;;34.20;22.13;;;8.90;99.90;;;;;;5018597;28;20038;-82
2023/10/26 05:00:32;;;;;;;31.50;21.83;;;8.90;99.90;;;;;;5017094;28;20056;-82
2023/10/26 05:02:58;;;;;;;38.65;23.08;;;8.90;99.90;;;;;;5018061;28;20091;-82
2023/10/26 05:05:23;;;;;;;35.15;22.55;;;8.90;99.90;;;;;;5033739;28;20034;-82
2023/10/26 05:07:49;;;;;;;36.97;24.05;;;8.90;99.90;;;;;;5017349;28;20045;-82
2023/10/26 05:10:14;;;;;;;34.55;22.50;;;8.90;99.90;;;;;;5033056;28;20080;-82
2023/10/26 05:12:40;;;;;;;33.30;21.95;;;8.80;99.90;;;;;;5032360;28;20045;-82
2023/10/26 05:15:06;;;;;;;35.28;22.23;;;8.80;99.90;;;;;;5017382;28;20044;-83
2023/10/26 05:17:31;;;;;;;32.22;21.70;;;8.80;99.90;;;;;;5015696;28;20041;-82
2023/10/26 05:19:57;;;;;;;38.92;21.40;;;8.80;99.90;;;;;;5033116;28;20129;-83
2023/10/26 05:22:23;;;;;;;37.67;23.20;;;8.70;99.90;;;;;;5032978;28;20069;-82
2023/10/26 05:24:48;;;;;;;83.40;24.13;;;8.60;99.90;;;;;;5033683;28;20091;-82
2023/10/26 05:27:14;;;;;;;134.48;27.08;;;8.60;99.90;;;;;;5033591;28;20037;-82
2023/10/26 05:29:40;;;;;;;38.47;21.58;;;8.50;99.90;;;;;;5033154;28;20554;-82
2023/10/26 05:32:05;;;;;;;210.55;27.90;;;8.50;99.90;;;;;;5031855;28;20087;-82
2023/10/26 05:34:31;;;;;;;53.95;23.58;;;8.40;99.90;;;;;;5032157;28;20034;-82
2023/10/26 05:36:57;;;;;;;366.05;35.60;;;8.30;99.90;;;;;;5017403;28;20124;-82
2023/10/26 05:39:22;;;;;;;37.97;21.45;;;8.30;99.90;;;;;;5017062;28;20045;-82
2023/10/26 05:41:48;;;;;;;81.75;21.75;;;8.30;99.90;;;;;;5017583;28;20526;-82
2023/10/26 05:44:14;;;;;;;39.58;19.77;;;8.30;99.90;;;;;;5033428;28;20420;-82
2023/10/26 05:46:39;;;;;;;32.70;20.67;;;8.20;99.90;;;;;;5019704;28;20612;-82
2023/10/26 05:49:05;;;;;;;62.08;20.15;;;8.20;99.90;;;;;;5032808;28;20417;-82
2023/10/26 05:51:31;;;;;;;138.00;22.42;;;8.20;99.90;;;;;;5033737;28;20501;-82
2023/10/26 05:53:57;;;;;;;53.40;19.70;;;8.20;99.90;;;;;;5035735;28;20583;-82
2023/10/26 05:56:22;;;;;;;47.22;19.38;;;8.20;99.90;;;;;;5019018;28;20132;-82
2023/10/26 05:58:50;;;;;;;32.58;19.45;;;8.20;99.90;;;;;;5023090;28;20071;-82
2023/10/26 06:01:16;;;;;;;58.63;19.95;;;8.20;99.90;;;;;;5037194;28;20056;-82
2023/10/26 06:03:42;;;;;;;93.90;22.70;;;8.20;99.90;;;;;;5036905;28;20081;-82
2023/10/26 06:06:07;;;;;;;31.05;20.45;;;8.30;99.90;;;;;;5022105;28;20061;-82
2023/10/26 06:08:33;;;;;;;125.88;22.77;;;8.20;99.90;;;;;;5036434;28;20045;-82
2023/10/26 06:10:58;;;;;;;246.82;25.70;;;8.20;99.90;;;;;;5019766;28;20068;-82
2023/10/26 06:13:24;;;;;;;46.72;19.38;;;8.20;99.90;;;;;;5037654;28;20041;-82
2023/10/26 06:15:50;;;;;;;28.00;18.98;;;8.10;99.90;;;;;;5036160;28;20037;-82
2023/10/26 06:18:16;;;;;;;62.95;21.63;;;8.10;99.90;;;;;;5038365;28;20039;-82
2023/10/26 06:20:41;;;;;;;111.25;22.00;;;8.10;99.90;;;;;;5035621;28;20041;-82
2023/10/26 06:23:07;;;;;;;75.43;21.30;;;8.00;99.90;;;;;;5036776;28;20033;-82
2023/10/26 06:25:38;;;;;;;45.70;19.23;;;8.10;99.90;;;;;;5036536;28;20099;-82
2023/10/26 06:28:04;;;;;;;45.60;22.80;;;8.10;99.90;;;;;;5035497;28;20045;-82
2023/10/26 06:30:30;;;;;;;75.63;23.13;;;8.10;99.90;;;;;;5036124;28;20460;-82
2023/10/26 06:32:58;;;;;;;38.47;22.90;;;8.10;99.90;;;;;;5020483;28;20037;-82
2023/10/26 06:35:24;;;;;;;45.33;21.77;;;8.10;99.90;;;;;;5020123;28;20068;-82
2023/10/26 06:37:50;;;;;;;125.60;25.40;;;8.10;99.90;;;;;;5022148;28;20079;-82
2023/10/26 06:40:16;;;;;;;122.25;23.15;;;8.20;99.90;;;;;;5039108;28;20104;-81
2023/10/26 06:42:41;;;;;;;84.63;21.33;;;8.20;99.90;;;;;;5038876;28;20060;-82
2023/10/26 06:45:08;;;;;;;142.73;21.55;;;8.20;99.90;;;;;;5037639;28;20038;-82
2023/10/26 06:47:33;;;;;;;183.50;21.75;;;8.20;99.90;;;;;;5005308;28;20048;-82
2023/10/26 06:49:59;;;;;;;135.00;20.48;;;8.20;99.90;;;;;;5019130;28;20475;-82
2023/10/26 06:52:25;;;;;;;92.13;20.27;;;8.20;99.90;;;;;;5035495;28;20041;-82
2023/10/26 06:54:51;;;;;;;106.10;20.55;;;8.10;99.90;;;;;;5053748;28;20041;-82
2023/10/26 06:57:16;;;;;;;167.50;22.38;;;8.20;99.90;;;;;;5035784;28;20042;-82
2023/10/26 06:59:42;;;;;;;59.97;18.80;;;8.10;99.90;;;;;;5018121;28;20124;-82
2023/10/26 07:02:08;;;;;;;66.15;18.13;;;8.20;99.90;;;;;;5037251;28;20046;-82
2023/10/26 07:04:37;;;;;;;80.75;18.70;;;8.20;99.90;;;;;;5036187;28;20045;-82
2023/10/26 07:07:03;;;;;;;138.73;20.90;;;8.20;99.90;;;;;;5035981;28;20068;-82
2023/10/26 07:09:29;;;;;;;161.82;21.85;;;8.20;99.90;;;;;;5034427;28;20048;-82
2023/10/26 07:11:55;;;;;;;197.48;23.70;;;8.30;99.90;;;;;;5020034;28;20076;-82
2023/10/26 07:14:21;;;;;;;160.45;21.02;;;8.30;99.90;;;;;;5034817;28;20041;-82
2023/10/26 07:16:46;;;;;;;196.90;22.17;;;8.30;99.90;;;;;;5018963;28;20037;-82
2023/10/26 07:19:12;;;;;;;158.35;21.50;;;8.30;99.90;;;;;;5035042;28;20037;-82
2023/10/26 07:21:37;;;;;;;104.57;17.85;;;8.30;99.90;;;;;;5033594;28;20045;-82
2023/10/26 07:24:03;;;;;;;97.45;18.63;;;8.30;99.90;;;;;;5035436;28;20160;-82
2023/10/26 07:26:29;;;;;;;75.85;17.67;;;8.30;99.90;;;;;;5018754;28;20041;-82
2023/10/26 07:28:57;;;;;;;81.10;17.88;;;8.30;99.90;;;;;;5018599;28;20141;-82
2023/10/26 07:31:23;;;;;;;80.90;17.75;;;8.40;99.90;;;;;;5035306;28;20549;-82
2023/10/26 07:33:48;;;;;;;114.53;18.98;;;8.50;99.90;;;;;;5035136;28;20053;-82
2023/10/26 07:36:14;;;;;;;55.40;17.42;;;8.50;99.90;;;;;;5035294;28;20108;-82
2023/10/26 07:38:41;;;;;;;38.97;15.88;;;8.50;99.90;;;;;;5018435;28;20072;-82
2023/10/26 07:41:08;;;;;;;60.33;18.42;;;8.60;99.90;;;;;;5035367;28;20493;-82
2023/10/26 07:43:37;;;;;;;45.05;17.83;;;8.60;99.90;;;;;;5021784;28;20038;-82
2023/10/26 07:46:03;;;;;;;27.67;18.23;;;8.60;99.90;;;;;;5038801;28;20417;-82
2023/10/26 07:48:28;;;;;;;30.88;18.85;;;8.70;99.90;;;;;;5038200;28;20037;-81
2023/10/26 07:50:55;;;;;;;35.00;20.20;;;8.70;99.90;;;;;;5040326;28;20168;-82
2023/10/26 07:53:21;;;;;;;36.17;22.02;;;8.80;99.90;;;;;;5038300;28;20041;-80
2023/10/26 07:55:47;;;;;;;35.28;21.40;;;8.90;99.90;;;;;;5037258;28;20037;-80
2023/10/26 07:58:12;;;;;;;35.88;22.92;;;9.00;99.90;;;;;;5039232;28;20043;-79
2023/10/26 08:00:38;;;;;;;39.45;22.35;;;9.00;99.90;;;;;;5036288;28;20088;-80
2023/10/26 08:03:04;;;;;;;42.80;23.98;;;9.10;99.90;;;;;;5022565;28;20037;-79
2023/10/26 08:05:30;;;;;;;39.45;23.38;;;9.20;99.90;;;;;;5038450;28;20065;-79
2023/10/26 08:07:56;;;;;;;42.92;22.95;;;9.20;99.90;;;;;;5038076;28;20041;-79
2023/10/26 08:10:23;;;;;;;38.85;22.70;;;9.30;99.90;;;;;;5037000;28;20053;-80
2023/10/26 08:12:52;;;;;;;40.70;22.48;;;9.30;99.90;;;;;;5040121;28;20056;-79
2023/10/26 08:15:18;;;;;;;41.17;23.00;;;9.40;99.90;;;;;;5039435;28;20041;-80
2023/10/26 08:17:44;;;;;;;39.67;23.05;;;9.40;99.90;;;;;;5038307;28;20409;-79
2023/10/26 08:20:10;;;;;;;52.13;23.63;;;9.40;99.90;;;;;;5037217;28;20087;-80
2023/10/26 08:22:35;;;;;;;44.95;25.08;;;9.50;99.90;;;;;;5038849;28;20052;-80
2023/10/26 08:25:04;;;;;;;41.50;22.15;;;9.50;99.90;;;;;;5037604;28;20045;-79
2023/10/26 08:27:35;;;;;;;36.38;22.23;;;9.50;99.90;;;;;;5037418;28;20053;-80
2023/10/26 08:30:02;;;;;;;44.65;22.27;;;9.50;99.90;;;;;;5037060;28;20503;-80
2023/10/26 08:32:28;;;;;;;43.03;22.55;;;9.50;99.90;;;;;;5036143;28;20034;-79
2023/10/26 08:34:53;;;;;;;35.70;20.77;;;9.50;99.90;;;;;;5035006;28;20053;-80
2023/10/26 08:37:19;;;;;;;42.83;22.45;;;9.50;99.90;;;;;;5036611;28;20046;-80
2023/10/26 08:39:44;;;;;;;39.08;21.17;;;9.50;99.90;;;;;;5020258;28;20412;-79
2023/10/26 08:42:10;;;;;;;36.47;20.67;;;9.50;99.90;;;;;;5035863;28;20120;-80
2023/10/26 08:44:36;;;;;;;38.53;21.50;;;9.50;99.90;;;;;;5036003;28;20048;-81
2023/10/26 08:47:05;;;;;;;33.90;20.30;;;9.60;99.90;;;;;;5038036;28;20429;-80
2023/10/26 08:49:32;;;;;;;36.33;21.23;;;9.50;99.90;;;;;;5036491;28;20099;-80
2023/10/26 08:51:58;;;;;;;32.95;20.17;;;9.60;99.90;;;;;;5037254;28;20041;-80
2023/10/26 08:54:26;;;;;;;34.35;20.10;;;9.70;99.90;;;;;;5036798;28;20049;-80
2023/10/26 08:56:51;;;;;;;33.25;19.85;;;9.70;99.90;;;;;;5036999;28;20409;-80
2023/10/26 08:59:17;;;;;;;34.15;20.10;;;9.70;99.90;;;;;;5037426;28;20038;-80
2023/10/26 09:01:48;;;;;;;33.38;19.13;;;9.80;99.90;;;;;;5036323;28;20037;-80
2023/10/26 09:04:15;;;;;;;35.53;20.42;;;9.80;99.90;;;;;;5034676;28;20496;-80
2023/10/26 09:06:45;;;;;;;36.17;19.60;;;9.80;99.90;;;;;;5035944;28;20045;-80
2023/10/26 09:09:11;;;;;;;33.38;19.65;;;9.90;99.90;;;;;;5032972;28;20091;-79
2023/10/26 09:11:36;;;;;;;30.88;19.30;;;9.80;99.90;;;;;;5034702;28;20037;-80
2023/10/26 09:14:13;;;;;;;29.73;18.67;;;9.80;99.90;;;;;;5019389;28;20036;-81
2023/10/26 09:16:41;;;;;;;33.08;18.77;;;9.90;99.90;;;;;;5037292;28;20041;-79
2023/10/26 09:19:07;;;;;;;30.75;19.10;;;9.80;99.90;;;;;;5037398;28;20045;-79
2023/10/26 09:21:48;;;;;;;32.83;19.20;;;9.80;99.90;;;;;;5035568;28;20045;-78
2023/10/26 09:24:26;;;;;;;33.47;19.17;;;9.80;99.90;;;;;;5052926;28;20459;-80
2023/10/26 09:27:00;;;;;;;29.17;18.63;;;9.80;99.90;;;;;;5020452;28;20109;-80
2023/10/26 09:29:38;;;;;;;33.33;18.98;;;9.80;99.90;;;;;;5036716;28;20076;-80
2023/10/26 09:32:04;;;;;;;30.95;18.13;;;9.90;99.90;;;;;;5038582;28;20061;-80
2023/10/26 09:34:30;;;;;;;30.35;18.67;;;10.00;99.90;;;;;;5040789;28;20052;-80
2023/10/26 09:37:00;;;;;;;33.50;19.05;;;10.00;99.90;;;;;;5040378;28;20041;-80
2023/10/26 09:39:34;;;;;;;29.40;18.20;;;10.10;99.90;;;;;;5040191;28;20043;-79
2023/10/26 09:42:01;;;;;;;;;;;10.10;99.90;;;;;;5023180;28;20045;-78
2023/10/26 09:44:30;;;;;;;28.10;16.95;;;10.10;99.90;;;;;;5040084;28;20237;-80
2023/10/26 09:46:57;;;;;;;26.83;16.88;;;10.10;99.90;;;;;;5039720;28;20041;-80
2023/10/26 09:49:24;;;;;;;25.85;17.05;;;10.10;99.90;;;;;;5023009;28;20042;-80
2023/10/26 09:51:50;;;;;;;29.73;18.23;;;10.10;99.90;;;;;;5039051;28;20045;-80
2023/10/26 09:54:18;;;;;;;29.13;18.85;;;10.20;99.90;;;;;;5037601;28;20121;-81
2023/10/26 09:56:49;;;;;;;24.33;16.77;;;10.10;99.90;;;;;;5039295;28;20044;-80
2023/10/26 09:59:16;;;;;;;25.17;16.85;;;10.20;99.90;;;;;;5038424;28;20047;-79
2023/10/26 10:01:41;;;;;;;26.95;17.42;;;10.20;99.90;;;;;;5021982;28;20128;-80
2023/10/26 10:04:09;;;;;;;29.80;16.75;;;10.20;99.90;;;;;;5038049;28;20072;-81
2023/10/26 10:06:48;;;;;;;29.70;18.48;;;10.20;99.90;;;;;;5039510;28;20049;-80
2023/10/26 10:09:16;;;;;;;31.02;18.08;;;10.30;99.90;;;;;;5038149;28;20057;-81
2023/10/26 10:11:42;;;;;;;27.20;17.48;;;10.30;99.90;;;;;;5036984;28;20049;-80
2023/10/26 10:14:07;;;;;;;25.95;18.23;;;10.30;99.90;;;;;;5037962;28;20041;-80
2023/10/26 10:16:36;;;;;;;27.65;17.52;;;10.30;99.90;;;;;;5020286;28;20084;-81
2023/10/26 10:19:21;;;;;;;25.52;17.50;;;10.30;99.90;;;;;;5037100;28;20100;-80
2023/10/26 10:21:48;;;;;;;25.60;17.30;;;10.30;99.90;;;;;;5037798;28;20404;-80
2023/10/26 10:24:39;;;;;;;24.30;17.40;;;10.30;99.90;;;;;;5022173;28;20048;-80
2023/10/26 10:27:18;;;;;;;26.13;17.67;;;10.40;99.90;;;;;;5037573;28;20053;-80
2023/10/26 10:29:43;;;;;;;28.15;18.55;;;10.50;99.90;;;;;;5036319;28;20052;-80
2023/10/26 10:32:13;;;;;;;29.27;17.45;;;10.50;99.90;;;;;;5038040;28;20041;-80
2023/10/26 10:34:43;;;;;;;26.55;17.70;;;10.60;99.90;;;;;;5036468;28;20084;-80
2023/10/26 10:37:21;;;;;;;26.27;17.70;;;10.60;99.90;;;;;;5039700;28;20041;-80
2023/10/26 10:40:09;;;;;;;26.77;17.27;;;10.70;99.90;;;;;;5036609;28;20037;-80
2023/10/26 10:42:35;;;;;;;28.35;18.00;;;10.70;99.90;;;;;;5037381;28;20072;-80
2023/10/26 10:45:03;;;;;;;27.98;18.35;;;10.70;99.90;;;;;;5019502;28;20173;-81
2023/10/26 10:47:29;;;;;;;24.65;17.73;;;10.70;99.90;;;;;;5037137;28;20583;-79
2023/10/26 10:50:19;;;;;;;28.38;18.05;;;10.70;99.90;;;;;;5037861;28;20045;-80
2023/10/26 10:52:47;;;;;;;26.60;17.42;;;10.70;99.90;;;;;;5019553;28;20404;-80
2023/10/26 10:55:19;;;;;;;28.13;17.23;;;10.70;99.90;;;;;;5028215;28;20044;-80
2023/10/26 10:58:11;;;;;;;29.42;18.65;;;10.70;99.90;;;;;;5037936;28;20029;-80
2023/10/26 11:00:46;;;;;;;31.58;18.67;;;10.90;99.90;;;;;;5036597;28;20045;-79
2023/10/26 11:03:19;;;;;;;30.15;18.75;;;10.90;99.90;;;;;;5038957;28;20049;-80
2023/10/26 11:05:44;;;;;;;29.90;19.38;;;11.00;99.90;;;;;;5038726;28;20497;-81
2023/10/26 11:08:10;;;;;;;31.05;19.15;;;11.00;99.90;;;;;;5039429;28;20068;-81
2023/10/26 11:10:36;;;;;;;30.92;20.65;;;11.10;99.90;;;;;;5038350;28;20406;-81
2023/10/26 11:13:03;;;;;;;35.15;20.63;;;11.20;99.90;;;;;;5038682;28;20041;-80
2023/10/26 11:15:37;;;;;;;28.67;19.42;;;11.20;99.90;;;;;;5038072;28;20041;-80
2023/10/26 11:18:04;;;;;;;;;;;11.20;99.90;;;;;;5039852;28;20160;-80
2023/10/26 11:20:47;;;;;;;29.08;18.10;;;11.20;99.90;;;;;;5038556;28;19916;-80
2023/10/26 11:23:16;;;;;;;31.23;20.67;;;11.30;99.90;;;;;;5038120;28;20068;-81
2023/10/26 11:25:44;;;;;;;35.50;20.80;;;11.20;99.90;;;;;;5037328;28;20056;-80
2023/10/26 11:28:10;;;;;;;34.38;21.80;;;11.30;99.90;;;;;;5037512;28;20086;-80
2023/10/26 11:30:48;;;;;;;34.58;22.58;;;11.30;99.90;;;;;;5035737;28;20037;-80
2023/10/26 11:33:31;;;;;;;35.10;22.10;;;11.30;99.90;;;;;;5036924;28;20037;-80
2023/10/26 11:35:57;;;;;;;32.88;21.75;;;11.30;99.90;;;;;;5038607;28;20124;-80
2023/10/26 11:38:23;;;;;;;38.30;23.58;;;11.40;99.90;;;;;;5037897;28;20037;-80
2023/10/26 11:40:48;;;;;;;35.05;22.98;;;11.40;99.90;;;;;;5035975;28;20048;-80
2023/10/26 11:43:14;;;;;;;33.63;22.42;;;11.40;99.90;;;;;;5031272;28;20048;-81
2023/10/26 11:45:48;;;;;;;36.35;23.20;;;11.40;99.90;;;;;;5034143;28;20037;-79
2023/10/26 11:48:29;;;;;;;32.38;21.48;;;11.30;99.90;;;;;;5034089;28;20041;-80
2023/10/26 11:50:55;;;;;;;32.53;20.98;;;11.30;99.90;;;;;;5033533;28;20461;-79
2023/10/26 11:53:22;;;;;;;31.40;20.50;;;11.30;99.90;;;;;;5032796;28;20044;-80
2023/10/26 11:55:49;;;;;;;33.20;21.35;;;11.40;99.90;;;;;;5035455;28;20049;-80
2023/10/26 11:58:14;;;;;;;29.80;20.13;;;11.40;99.90;;;;;;5034517;28;20034;-80
2023/10/26 12:00:42;;;;;;;32.42;20.98;;;11.40;99.90;;;;;;5034628;28;20045;-80
2023/10/26 12:03:08;;;;;;;29.75;20.48;;;11.40;99.90;;;;;;5033316;28;20046;-80
2023/10/26 12:05:34;;;;;;;28.77;21.48;;;11.40;99.90;;;;;;5033272;28;20091;-80
2023/10/26 12:07:59;;;;;;;29.13;21.00;;;11.50;99.90;;;;;;5033791;28;20432;-81
2023/10/26 12:10:25;;;;;;;31.50;21.48;;;11.50;99.90;;;;;;5019460;28;20044;-80
2023/10/26 12:12:52;;;;;;;34.25;21.02;;;11.50;99.90;;;;;;5036203;28;20038;-81
2023/10/26 12:15:19;;;;;;;28.40;20.23;;;11.50;99.90;;;;;;5036302;28;20087;-81
2023/10/26 12:17:45;;;;;;;31.17;20.83;;;11.50;99.90;;;;;;5034414;28;20125;-81
2023/10/26 12:20:11;;;;;;;28.77;21.08;;;11.50;99.90;;;;;;5033882;28;20049;-80
2023/10/26 12:22:37;;;;;;;27.45;19.73;;;11.40;99.90;;;;;;5033278;28;20034;-80
2023/10/26 12:25:04;;;;;;;28.33;20.02;;;11.40;99.90;;;;;;5035569;28;20037;-81
2023/10/26 12:27:30;;;;;;;28.30;19.35;;;11.40;99.90;;;;;;5034949;28;20128;-81
2023/10/26 12:29:56;;;;;;;29.80;19.38;;;11.40;99.90;;;;;;5036076;28;20445;-81
2023/10/26 12:32:21;;;;;;;31.08;19.73;;;11.40;99.90;;;;;;5035215;28;20082;-80